Time;durP1;ratioP1;P1;durP2;ratioP2;P2;SDS_P1;SDS_P2;PMS_P1;PMS_P2;Temp;Humidity;BMP_temperature;BMP_pressure;BME280_temperature;BME280_humidity;BME280_pressure;Samples;Min_cycle;Max_cycle;Signal;HPM_P1;HPM_P2
2023/08/27 00:00:38;;;;;;;0.75;0.70;;;17.60;99.90;;;;;;4418589;32;20486;-74
2023/08/27 00:03:04;;;;;;;0.85;0.75;;;17.60;99.90;;;;;;4419640;32;20063;-76
2023/08/27 00:05:29;;;;;;;0.60;0.60;;;17.60;99.90;;;;;;4421252;32;20442;-74
2023/08/27 00:07:55;;;;;;;1.08;1.00;;;17.60;99.90;;;;;;4419010;32;20101;-73
2023/08/27 00:10:20;;;;;;;0.93;0.73;;;17.50;99.90;;;;;;4421751;32;20101;-73
2023/08/27 00:12:46;;;;;;;0.85;0.77;;;17.60;99.90;;;;;;4420084;32;20718;-74
2023/08/27 00:15:12;;;;;;;3.30;0.95;;;17.60;99.90;;;;;;4416377;32;20070;-73
2023/08/27 00:17:37;;;;;;;0.35;0.35;;;17.60;99.90;;;;;;4418973;32;20111;-73
2023/08/27 00:20:06;;;;;;;0.40;0.40;;;17.60;99.90;;;;;;4421224;32;20132;-73
2023/08/27 00:22:32;;;;;;;0.50;0.50;;;17.50;99.90;;;;;;4419851;32;20069;-73
2023/08/27 00:24:58;;;;;;;0.60;0.60;;;17.50;99.90;;;;;;4420248;32;20090;-73
2023/08/27 00:27:24;;;;;;;0.40;0.40;;;17.50;99.90;;;;;;4420131;32;20077;-74
2023/08/27 00:29:49;;;;;;;2.12;0.65;;;17.50;99.90;;;;;;4422317;32;20574;-74
2023/08/27 00:32:15;;;;;;;0.50;0.50;;;17.50;99.90;;;;;;4420307;32;20077;-73
2023/08/27 00:34:40;;;;;;;2.78;1.00;;;17.50;99.90;;;;;;4419170;32;21064;-73
2023/08/27 00:37:06;;;;;;;0.50;0.50;;;17.30;99.90;;;;;;4420419;32;20124;-75
2023/08/27 00:39:31;;;;;;;0.57;0.57;;;17.30;99.90;;;;;;4420387;32;20429;-76
2023/08/27 00:41:57;;;;;;;0.60;0.60;;;17.20;99.90;;;;;;4417900;32;20113;-75
2023/08/27 00:44:23;;;;;;;0.40;0.40;;;17.10;99.90;;;;;;4417895;32;20081;-75
2023/08/27 00:46:50;;;;;;;1.02;0.60;;;17.00;99.90;;;;;;4416291;32;20079;-75
2023/08/27 00:49:15;;;;;;;0.85;0.85;;;17.10;99.90;;;;;;4422844;32;20081;-76
2023/08/27 00:51:44;;;;;;;10.55;0.77;;;17.00;99.90;;;;;;4420431;32;20072;-75
2023/08/27 00:54:10;;;;;;;1.42;1.15;;;16.80;99.90;;;;;;4421145;32;20074;-75
2023/08/27 00:56:36;;;;;;;0.60;0.60;;;16.60;99.90;;;;;;4422755;32;20089;-75
2023/08/27 00:59:02;;;;;;;0.45;0.45;;;16.60;99.90;;;;;;4421902;32;20092;-74
2023/08/27 01:01:29;;;;;;;0.37;0.37;;;16.70;99.90;;;;;;4418694;32;20065;-76
2023/08/27 01:03:54;;;;;;;2.83;1.23;;;16.70;99.90;;;;;;4418763;32;20082;-75
2023/08/27 01:06:20;;;;;;;0.50;0.50;;;16.80;99.90;;;;;;4420795;32;20085;-75
2023/08/27 01:09:10;;;;;;;0.43;0.43;;;16.80;99.90;;;;;;4421869;32;20072;-75
2023/08/27 01:12:03;;;;;;;0.45;0.45;;;16.80;99.90;;;;;;4411160;32;20093;-74
2023/08/27 01:14:33;;;;;;;0.60;0.60;;;16.80;99.90;;;;;;4420860;32;20122;-75
2023/08/27 01:17:02;;;;;;;0.70;0.70;;;16.70;99.90;;;;;;4423327;32;20133;-77
2023/08/27 01:19:28;;;;;;;1.17;0.95;;;16.70;99.90;;;;;;4421740;32;20068;-76
2023/08/27 01:21:54;;;;;;;0.47;0.47;;;16.60;99.90;;;;;;4422931;32;20081;-74
2023/08/27 01:24:19;;;;;;;0.50;0.50;;;16.60;99.90;;;;;;4423600;32;20473;-77
2023/08/27 01:26:50;;;;;;;0.55;0.55;;;16.60;99.90;;;;;;4420160;32;20113;-77
2023/08/27 01:29:26;;;;;;;;;;;16.60;99.90;;;;;;4420050;32;20808;-75
2023/08/27 01:32:00;;;;;;;0.30;0.30;;;16.50;99.90;;;;;;4421940;32;19980;-74
2023/08/27 01:34:27;;;;;;;6.90;1.65;;;16.60;99.90;;;;;;4421653;32;20516;-74
2023/08/27 01:36:52;;;;;;;0.60;0.60;;;16.60;99.90;;;;;;4421366;32;20073;-74
2023/08/27 01:39:18;;;;;;;0.68;0.68;;;16.60;99.90;;;;;;4421153;32;20085;-72
2023/08/27 01:41:45;;;;;;;1.95;0.88;;;16.60;99.90;;;;;;4419382;32;20077;-75
2023/08/27 01:44:10;;;;;;;0.50;0.50;;;16.60;99.90;;;;;;4420994;32;20077;-74
2023/08/27 01:46:36;;;;;;;0.32;0.32;;;16.70;99.90;;;;;;4419131;32;20065;-73
2023/08/27 01:49:02;;;;;;;0.55;0.55;;;16.70;99.90;;;;;;4423823;32;20452;-74
2023/08/27 01:51:27;;;;;;;1.17;0.82;;;16.50;99.90;;;;;;4420644;32;20106;-78
2023/08/27 01:53:53;;;;;;;0.35;0.35;;;16.50;99.90;;;;;;4419001;32;20168;-75
2023/08/27 01:56:18;;;;;;;1.62;0.93;;;16.50;99.90;;;;;;4425393;32;20061;-74
2023/08/27 01:58:44;;;;;;;0.55;0.52;;;16.60;99.90;;;;;;4423780;32;20084;-77
2023/08/27 02:01:10;;;;;;;1.55;0.73;;;16.60;99.90;;;;;;4422617;32;20097;-75
2023/08/27 02:03:36;;;;;;;0.40;0.40;;;16.50;99.90;;;;;;4423859;32;20062;-75
2023/08/27 02:06:01;;;;;;;1.30;1.17;;;16.60;99.90;;;;;;4425149;32;20068;-74
2023/08/27 02:08:27;;;;;;;0.73;0.50;;;16.50;99.90;;;;;;4424931;32;20089;-74
2023/08/27 02:10:52;;;;;;;0.70;0.70;;;16.40;99.90;;;;;;4421466;32;20613;-74
2023/08/27 02:13:18;;;;;;;0.40;0.40;;;16.50;99.90;;;;;;4421661;32;20073;-74
2023/08/27 02:15:43;;;;;;;0.32;0.32;;;16.50;99.90;;;;;;4422849;32;20132;-74
2023/08/27 02:18:10;;;;;;;0.82;0.70;;;16.40;99.90;;;;;;4420635;32;20066;-76
2023/08/27 02:20:36;;;;;;;0.57;0.57;;;16.40;99.90;;;;;;4423007;32;20070;-74
2023/08/27 02:23:03;;;;;;;0.50;0.50;;;16.40;99.90;;;;;;4421956;32;20095;-75
2023/08/27 02:25:29;;;;;;;1.02;0.60;;;16.40;99.90;;;;;;4421707;32;20072;-74
2023/08/27 02:27:54;;;;;;;0.50;0.50;;;16.50;99.90;;;;;;4421536;32;20131;-74
2023/08/27 02:30:20;;;;;;;2.10;1.25;;;16.60;99.90;;;;;;4421659;32;20081;-74
2023/08/27 02:32:45;;;;;;;2.28;0.68;;;16.60;99.90;;;;;;4421581;32;20089;-74
2023/08/27 02:35:12;;;;;;;0.73;0.73;;;16.60;99.90;;;;;;4421929;32;20097;-73
2023/08/27 02:37:37;;;;;;;0.73;0.62;;;16.50;99.90;;;;;;4423151;32;20101;-75
2023/08/27 02:40:03;;;;;;;1.10;0.62;;;16.40;99.90;;;;;;4422021;32;20521;-75
2023/08/27 02:42:29;;;;;;;3.85;1.05;;;16.50;99.90;;;;;;4419151;32;20080;-74
2023/08/27 02:44:54;;;;;;;1.92;1.02;;;16.60;99.90;;;;;;4420944;32;20085;-75
2023/08/27 02:47:20;;;;;;;0.50;0.50;;;16.60;99.90;;;;;;4419293;32;20537;-76
2023/08/27 02:49:45;;;;;;;0.57;0.57;;;16.40;99.90;;;;;;4422102;32;20070;-74
2023/08/27 02:52:11;;;;;;;1.35;0.65;;;16.40;99.90;;;;;;4422555;32;20423;-74
2023/08/27 02:54:37;;;;;;;1.45;0.95;;;16.40;99.90;;;;;;4421075;32;20077;-74
2023/08/27 02:57:03;;;;;;;4.07;1.48;;;16.40;99.90;;;;;;4420669;32;20085;-74
2023/08/27 02:59:28;;;;;;;0.57;0.57;;;16.40;99.90;;;;;;4421117;32;20616;-77
2023/08/27 03:01:54;;;;;;;0.77;0.73;;;16.60;99.90;;;;;;4421984;32;20082;-75
2023/08/27 03:04:19;;;;;;;0.82;0.60;;;16.40;99.90;;;;;;4421470;32;20576;-74
2023/08/27 03:06:45;;;;;;;2.83;0.68;;;16.40;99.90;;;;;;4423195;32;20134;-74
2023/08/27 03:09:10;;;;;;;0.60;0.60;;;16.50;99.90;;;;;;4422989;32;20074;-75
2023/08/27 03:11:37;;;;;;;0.52;0.50;;;16.60;99.90;;;;;;4420947;32;20065;-75
2023/08/27 03:14:02;;;;;;;0.57;0.57;;;16.60;99.90;;;;;;4418534;32;20439;-74
2023/08/27 03:16:28;;;;;;;0.60;0.60;;;16.40;99.90;;;;;;4420732;32;20104;-75
2023/08/27 03:18:54;;;;;;;0.60;0.60;;;16.40;99.90;;;;;;4419792;32;20120;-74
2023/08/27 03:21:21;;;;;;;0.73;0.52;;;16.30;99.90;;;;;;4422130;32;20130;-74
2023/08/27 03:23:47;;;;;;;0.43;0.43;;;16.30;99.90;;;;;;4421971;32;20092;-74
2023/08/27 03:26:12;;;;;;;0.77;0.62;;;16.40;99.90;;;;;;4420890;32;20072;-75
2023/08/27 03:28:38;;;;;;;1.85;1.20;;;16.40;99.90;;;;;;4421581;32;20073;-74
2023/08/27 03:31:03;;;;;;;0.52;0.52;;;16.30;99.90;;;;;;4418704;32;20152;-75
2023/08/27 03:33:31;;;;;;;1.40;1.30;;;16.30;99.90;;;;;;4419821;32;21196;-75
2023/08/27 03:35:58;;;;;;;0.52;0.52;;;16.20;99.90;;;;;;4420664;32;20472;-74
2023/08/27 03:38:23;;;;;;;0.60;0.60;;;16.30;99.90;;;;;;4423266;32;20085;-74
2023/08/27 03:40:50;;;;;;;1.48;0.60;;;16.30;99.90;;;;;;4420790;32;20123;-77
2023/08/27 03:43:16;;;;;;;0.60;0.60;;;16.50;99.90;;;;;;4420723;32;20057;-77
2023/08/27 03:45:41;;;;;;;0.88;0.52;;;16.40;99.90;;;;;;4418119;32;20089;-77
2023/08/27 03:48:07;;;;;;;0.40;0.40;;;16.30;99.90;;;;;;4419116;32;20299;-76
2023/08/27 03:50:35;;;;;;;20.65;0.80;;;16.20;99.90;;;;;;4421538;32;20069;-77
2023/08/27 03:53:00;;;;;;;0.68;0.60;;;16.30;99.90;;;;;;4417500;32;20109;-77
2023/08/27 03:55:26;;;;;;;0.50;0.50;;;16.40;99.90;;;;;;4419427;32;20093;-76
2023/08/27 03:57:51;;;;;;;0.45;0.45;;;16.40;99.90;;;;;;4419866;32;20163;-77
2023/08/27 04:00:17;;;;;;;0.57;0.57;;;16.50;99.90;;;;;;4420875;32;20088;-77
2023/08/27 04:02:44;;;;;;;1.35;0.60;;;16.40;99.90;;;;;;4416943;32;20131;-76
2023/08/27 04:05:10;;;;;;;0.82;0.52;;;16.50;99.90;;;;;;4421421;32;20065;-77
2023/08/27 04:07:36;;;;;;;0.73;0.73;;;16.50;99.90;;;;;;4421485;32;20117;-76
2023/08/27 04:10:04;;;;;;;0.30;0.30;;;16.50;99.90;;;;;;4421746;32;20145;-77
2023/08/27 04:12:30;;;;;;;0.62;0.62;;;16.60;99.90;;;;;;4419262;32;20097;-77
2023/08/27 04:14:57;;;;;;;0.77;0.60;;;16.60;99.90;;;;;;4420751;32;20097;-77
2023/08/27 04:17:22;;;;;;;0.40;0.40;;;16.50;99.90;;;;;;4421859;32;20073;-77
2023/08/27 04:19:48;;;;;;;0.40;0.40;;;16.50;99.90;;;;;;4420498;32;20118;-76
2023/08/27 04:22:13;;;;;;;0.93;0.85;;;16.50;99.90;;;;;;4420915;32;20093;-77
2023/08/27 04:24:39;;;;;;;0.30;0.30;;;16.50;99.90;;;;;;4421721;32;20101;-76
2023/08/27 04:27:04;;;;;;;0.40;0.40;;;16.50;99.90;;;;;;4421716;32;20062;-76
2023/08/27 04:29:30;;;;;;;0.62;0.62;;;16.50;99.90;;;;;;4423141;32;20536;-76
2023/08/27 04:31:55;;;;;;;0.60;0.60;;;16.60;99.90;;;;;;4419842;32;20125;-76
2023/08/27 04:34:21;;;;;;;2.97;1.75;;;16.60;99.90;;;;;;4422233;32;20077;-76
2023/08/27 04:36:46;;;;;;;0.40;0.40;;;16.60;99.90;;;;;;4422664;32;20089;-76
2023/08/27 04:39:13;;;;;;;0.50;0.50;;;16.50;99.90;;;;;;4422692;32;20200;-76
2023/08/27 04:41:39;;;;;;;0.60;0.60;;;16.50;99.90;;;;;;4422707;32;20072;-76
2023/08/27 04:44:05;;;;;;;0.68;0.60;;;16.50;99.90;;;;;;4422358;32;20569;-76
2023/08/27 04:46:31;;;;;;;0.70;0.70;;;16.40;99.90;;;;;;4423856;32;20090;-77
2023/08/27 04:48:56;;;;;;;0.50;0.50;;;16.40;99.90;;;;;;4422797;32;20080;-75
2023/08/27 04:51:26;;;;;;;1.17;0.80;;;16.40;99.90;;;;;;4423884;32;20109;-74
2023/08/27 04:53:52;;;;;;;0.60;0.60;;;16.50;99.90;;;;;;4425156;32;20528;-75
2023/08/27 04:56:18;;;;;;;1.75;0.90;;;16.50;99.90;;;;;;4421348;32;20085;-74
2023/08/27 04:58:43;;;;;;;2.50;0.88;;;16.50;99.90;;;;;;4423840;32;20109;-76
2023/08/27 05:01:09;;;;;;;1.23;0.60;;;16.50;99.90;;;;;;4423489;32;20127;-75
2023/08/27 05:03:34;;;;;;;0.60;0.60;;;16.60;99.90;;;;;;4421718;32;20450;-75
2023/08/27 05:06:00;;;;;;;2.08;1.33;;;16.60;99.90;;;;;;4422388;32;20090;-74
2023/08/27 05:08:26;;;;;;;1.10;0.75;;;16.70;99.90;;;;;;4424011;32;20089;-73
2023/08/27 05:10:52;;;;;;;1.60;0.70;;;16.60;99.90;;;;;;4422424;32;20104;-73
2023/08/27 05:13:17;;;;;;;1.02;0.93;;;16.60;99.90;;;;;;4421096;32;20069;-75
2023/08/27 05:15:43;;;;;;;0.57;0.57;;;16.60;99.90;;;;;;4424091;32;20131;-74
2023/08/27 05:18:09;;;;;;;0.65;0.62;;;16.60;99.90;;;;;;4422631;32;20530;-74
2023/08/27 05:20:37;;;;;;;0.70;0.70;;;16.70;99.90;;;;;;4421011;32;20062;-74
2023/08/27 05:23:02;;;;;;;1.00;0.88;;;16.70;99.90;;;;;;4422417;32;20295;-74
2023/08/27 05:25:28;;;;;;;0.93;0.65;;;16.80;99.90;;;;;;4423201;32;20101;-75
2023/08/27 05:27:53;;;;;;;0.47;0.47;;;16.90;99.90;;;;;;4423385;32;20073;-73
2023/08/27 05:30:19;;;;;;;0.40;0.40;;;16.90;99.90;;;;;;4423893;32;20061;-74
2023/08/27 05:32:44;;;;;;;1.37;1.02;;;17.00;99.90;;;;;;4422068;32;20084;-75
2023/08/27 05:35:10;;;;;;;0.80;0.45;;;17.00;99.90;;;;;;4422712;32;20100;-76
2023/08/27 05:37:36;;;;;;;0.50;0.50;;;17.00;99.90;;;;;;4421665;32;20074;-74
2023/08/27 05:40:05;;;;;;;0.60;0.60;;;17.10;99.90;;;;;;4424091;32;20079;-74
2023/08/27 05:42:30;;;;;;;1.42;0.68;;;17.00;99.90;;;;;;4424325;32;20580;-73
2023/08/27 05:44:55;;;;;;;0.55;0.55;;;17.10;99.90;;;;;;4422429;32;20061;-74
2023/08/27 05:47:21;;;;;;;0.52;0.52;;;17.20;99.90;;;;;;4424716;32;20144;-74
2023/08/27 05:49:46;;;;;;;0.90;0.70;;;17.20;99.90;;;;;;4425293;32;20520;-73
2023/08/27 05:52:12;;;;;;;0.77;0.77;;;17.20;99.90;;;;;;4425402;32;20077;-75
2023/08/27 05:54:37;;;;;;;0.47;0.47;;;17.10;99.90;;;;;;4425052;32;20638;-74
2023/08/27 05:57:04;;;;;;;0.50;0.50;;;17.10;99.90;;;;;;4422815;32;20082;-73
2023/08/27 05:59:29;;;;;;;0.43;0.43;;;17.20;99.90;;;;;;4419931;32;20081;-73
2023/08/27 06:01:56;;;;;;;2.95;0.70;;;17.20;99.90;;;;;;4423576;32;20105;-76
2023/08/27 06:04:22;;;;;;;0.77;0.77;;;17.30;99.90;;;;;;4422904;32;20109;-76
2023/08/27 06:06:47;;;;;;;0.30;0.30;;;17.40;99.90;;;;;;4422034;32;20073;-75
2023/08/27 06:09:12;;;;;;;0.32;0.32;;;17.30;99.90;;;;;;4423604;32;20082;-75
2023/08/27 06:11:38;;;;;;;2.90;1.02;;;17.30;99.90;;;;;;4423244;32;20101;-75
2023/08/27 06:14:03;;;;;;;1.02;0.60;;;17.30;99.90;;;;;;4420905;32;20207;-75
2023/08/27 06:16:29;;;;;;;0.90;0.50;;;17.40;99.90;;;;;;4421710;32;20439;-77
2023/08/27 06:18:55;;;;;;;0.47;0.47;;;17.50;99.90;;;;;;4422012;32;20183;-77
2023/08/27 06:21:20;;;;;;;0.88;0.62;;;17.50;99.90;;;;;;4423058;32;20101;-75
2023/08/27 06:23:46;;;;;;;0.55;0.55;;;17.60;99.90;;;;;;4421064;32;20127;-75
2023/08/27 06:26:13;;;;;;;0.30;0.30;;;17.70;99.90;;;;;;4421904;32;20093;-75
2023/08/27 06:28:38;;;;;;;0.57;0.57;;;17.70;99.90;;;;;;4422210;32;20149;-75
2023/08/27 06:31:03;;;;;;;0.40;0.40;;;17.80;99.90;;;;;;4423207;32;20097;-75
2023/08/27 06:33:29;;;;;;;1.75;1.08;;;17.90;99.90;;;;;;4423066;32;20085;-75
2023/08/27 06:35:54;;;;;;;0.60;0.60;;;18.00;99.90;;;;;;4422863;32;20655;-75
2023/08/27 06:38:20;;;;;;;1.40;1.05;;;18.00;99.90;;;;;;4420229;32;20158;-75
2023/08/27 06:40:45;;;;;;;0.70;0.70;;;18.10;99.90;;;;;;4421376;32;20092;-77
2023/08/27 06:43:11;;;;;;;1.75;0.70;;;18.20;99.90;;;;;;4423720;32;20537;-75
2023/08/27 06:45:36;;;;;;;0.80;0.62;;;18.20;99.90;;;;;;4423204;32;20572;-75
2023/08/27 06:48:02;;;;;;;1.65;0.52;;;18.30;99.90;;;;;;4423855;32;20193;-75
2023/08/27 06:50:28;;;;;;;0.43;0.43;;;18.30;99.90;;;;;;4421128;32;20073;-75
2023/08/27 06:52:54;;;;;;;1.58;0.70;;;18.40;99.90;;;;;;4422180;32;20520;-75
2023/08/27 06:55:20;;;;;;;0.35;0.35;;;18.50;99.90;;;;;;4420597;32;20085;-75
2023/08/27 06:57:45;;;;;;;0.45;0.45;;;18.50;99.90;;;;;;4418417;32;21255;-75
2023/08/27 07:00:11;;;;;;;0.40;0.40;;;18.60;99.90;;;;;;4421665;32;20566;-76
2023/08/27 07:02:37;;;;;;;0.32;0.30;;;18.60;99.90;;;;;;4421390;32;20064;-76
2023/08/27 07:05:08;;;;;;;0.40;0.40;;;18.60;99.90;;;;;;4422460;32;20553;-75
2023/08/27 07:07:36;;;;;;;11.65;0.98;;;18.60;99.90;;;;;;4421984;32;20145;-76
2023/08/27 07:10:03;;;;;;;2.80;1.05;;;18.60;99.90;;;;;;4421767;32;20469;-75
2023/08/27 07:12:28;;;;;;;0.30;0.30;;;18.60;99.90;;;;;;4420982;32;20686;-74
2023/08/27 07:14:56;;;;;;;1.70;0.82;;;18.60;99.90;;;;;;4423167;32;20082;-75
2023/08/27 07:17:21;;;;;;;0.93;0.90;;;18.70;99.90;;;;;;4422696;32;20144;-73
2023/08/27 07:19:48;;;;;;;1.15;0.90;;;18.80;99.90;;;;;;4421959;32;20093;-73
2023/08/27 07:22:13;;;;;;;0.35;0.35;;;18.70;99.90;;;;;;4423266;32;20065;-75
2023/08/27 07:24:40;;;;;;;0.57;0.50;;;18.80;99.90;;;;;;4423092;32;20081;-74
2023/08/27 07:27:09;;;;;;;0.50;0.50;;;18.80;99.90;;;;;;4420138;32;20081;-75
2023/08/27 07:29:35;;;;;;;0.57;0.57;;;18.90;99.90;;;;;;4421910;32;20076;-74
2023/08/27 07:32:00;;;;;;;0.40;0.40;;;18.90;99.90;;;;;;4422065;32;20498;-77
2023/08/27 07:34:26;;;;;;;0.60;0.60;;;18.90;99.90;;;;;;4419360;32;20065;-74
2023/08/27 07:36:54;;;;;;;0.73;0.65;;;19.00;99.90;;;;;;4419195;32;20475;-75
2023/08/27 07:39:19;;;;;;;0.43;0.43;;;19.10;99.90;;;;;;4420929;32;20541;-74
2023/08/27 07:41:45;;;;;;;0.50;0.50;;;19.20;99.90;;;;;;4418423;32;20155;-77
2023/08/27 07:44:10;;;;;;;0.68;0.65;;;19.20;99.90;;;;;;4421548;32;20497;-76
2023/08/27 07:46:36;;;;;;;0.30;0.30;;;19.40;99.90;;;;;;4422113;32;20081;-77
2023/08/27 07:49:01;;;;;;;11.23;0.68;;;19.50;99.90;;;;;;4420998;32;20077;-77
2023/08/27 07:51:27;;;;;;;0.35;0.28;;;19.60;99.90;;;;;;4420769;32;20101;-77
2023/08/27 07:53:52;;;;;;;1.67;0.95;;;19.70;99.90;;;;;;4421957;32;20065;-77
2023/08/27 07:56:18;;;;;;;0.90;0.62;;;19.80;99.90;;;;;;4419551;32;20078;-77
2023/08/27 07:58:43;;;;;;;0.30;0.30;;;19.80;99.90;;;;;;4420234;32;20085;-77
2023/08/27 08:01:09;;;;;;;0.32;0.32;;;19.90;99.90;;;;;;4418340;32;20065;-78
2023/08/27 08:03:34;;;;;;;0.30;0.30;;;20.00;99.90;;;;;;4419489;32;20081;-77
2023/08/27 08:06:01;;;;;;;0.40;0.40;;;20.10;99.90;;;;;;4418610;32;20105;-77
2023/08/27 08:08:27;;;;;;;0.35;0.35;;;20.20;99.90;;;;;;4420915;32;20105;-77
2023/08/27 08:10:55;;;;;;;0.30;0.30;;;20.20;99.90;;;;;;4417641;32;20137;-77
2023/08/27 08:13:21;;;;;;;0.40;0.40;;;20.30;99.90;;;;;;4420073;32;20089;-77
2023/08/27 08:15:47;;;;;;;0.30;0.30;;;20.40;99.90;;;;;;4421474;32;20126;-77
2023/08/27 08:18:13;;;;;;;0.40;0.40;;;20.40;99.90;;;;;;4418878;32;20149;-76
2023/08/27 08:20:40;;;;;;;0.40;0.40;;;20.40;99.90;;;;;;4421224;32;20077;-76
2023/08/27 08:23:05;;;;;;;0.40;0.40;;;20.50;99.90;;;;;;4417288;32;20101;-76
2023/08/27 08:25:33;;;;;;;0.40;0.40;;;20.40;99.90;;;;;;4419594;32;20092;-76
2023/08/27 08:27:59;;;;;;;0.73;0.57;;;20.40;99.90;;;;;;4419421;32;20081;-76
2023/08/27 08:30:24;;;;;;;0.60;0.60;;;20.30;99.90;;;;;;4418431;32;20069;-77
2023/08/27 08:32:51;;;;;;;0.60;0.60;;;20.30;99.90;;;;;;4417273;32;20108;-76
2023/08/27 08:35:17;;;;;;;0.40;0.40;;;20.30;99.90;;;;;;4418530;32;20081;-76
2023/08/27 08:37:42;;;;;;;0.40;0.40;;;20.30;99.90;;;;;;4415770;32;20625;-76
2023/08/27 08:40:10;;;;;;;0.32;0.32;;;20.30;99.90;;;;;;4416130;32;20089;-76
2023/08/27 08:42:57;;;;;;;0.77;0.50;;;20.30;99.90;;;;;;4415282;32;20524;-76
2023/08/27 08:45:47;;;;;;;0.40;0.40;;;20.30;99.90;;;;;;4415258;32;20519;-76
2023/08/27 08:48:13;;;;;;;0.40;0.40;;;20.30;99.90;;;;;;4413935;32;20089;-76
2023/08/27 08:50:40;;;;;;;0.50;0.50;;;20.30;99.90;;;;;;4415961;32;20839;-75
2023/08/27 08:53:13;;;;;;;2.65;0.95;;;20.30;99.90;;;;;;4416854;32;20077;-75
2023/08/27 08:55:42;;;;;;;0.50;0.50;;;20.30;99.90;;;;;;4418385;32;20318;-76
2023/08/27 08:58:11;;;;;;;0.45;0.45;;;20.30;99.90;;;;;;4419675;32;21313;-75
2023/08/27 09:00:36;;;;;;;0.35;0.35;;;20.40;99.90;;;;;;4418324;32;20638;-74
2023/08/27 09:03:03;;;;;;;0.68;0.68;;;20.30;99.90;;;;;;4418621;32;20065;-74
2023/08/27 09:05:31;;;;;;;0.40;0.40;;;20.40;99.90;;;;;;4419610;32;20077;-74
2023/08/27 09:07:57;;;;;;;0.30;0.30;;;20.40;99.90;;;;;;4419210;32;20173;-74
2023/08/27 09:10:24;;;;;;;0.40;0.40;;;20.50;99.90;;;;;;4419955;32;20065;-76
2023/08/27 09:12:56;;;;;;;0.60;0.37;;;20.50;99.90;;;;;;4420010;32;20465;-73
2023/08/27 09:15:23;;;;;;;0.30;0.30;;;20.60;99.90;;;;;;4418562;32;20549;-74
2023/08/27 09:17:49;;;;;;;0.57;0.57;;;20.60;99.90;;;;;;4420349;32;20160;-74
2023/08/27 09:20:16;;;;;;;1.05;0.80;;;20.60;99.90;;;;;;4422903;32;20122;-74
2023/08/27 09:22:42;;;;;;;0.50;0.50;;;20.60;99.90;;;;;;4421442;32;20159;-74
2023/08/27 09:25:09;;;;;;;0.45;0.45;;;20.70;99.90;;;;;;4422762;32;20438;-73
2023/08/27 09:27:35;;;;;;;0.28;0.28;;;20.60;99.90;;;;;;4425189;32;20066;-74
2023/08/27 09:30:03;;;;;;;0.88;0.40;;;20.60;99.90;;;;;;4423899;32;20523;-74
2023/08/27 09:32:29;;;;;;;0.30;0.30;;;20.60;99.90;;;;;;4425555;32;20442;-74
2023/08/27 09:35:02;;;;;;;0.65;0.65;;;20.60;99.90;;;;;;4420646;32;20433;-76
2023/08/27 09:37:28;;;;;;;0.20;0.20;;;20.60;99.90;;;;;;4421846;32;20145;-74
2023/08/27 09:39:54;;;;;;;0.80;0.50;;;20.60;99.90;;;;;;4421961;32;20062;-74
2023/08/27 09:42:22;;;;;;;0.47;0.47;;;20.70;99.90;;;;;;4420718;32;20528;-75
2023/08/27 09:44:51;;;;;;;0.30;0.30;;;20.70;99.90;;;;;;4421576;32;20493;-74
2023/08/27 09:47:30;;;;;;;0.30;0.30;;;20.70;99.90;;;;;;4423666;32;20081;-75
2023/08/27 09:49:55;;;;;;;0.98;0.37;;;20.80;99.90;;;;;;4420860;32;20088;-74
2023/08/27 09:52:24;;;;;;;0.30;0.30;;;20.80;99.90;;;;;;4423587;32;20703;-74
2023/08/27 09:54:50;;;;;;;0.40;0.40;;;21.00;99.90;;;;;;4420748;32;20537;-74
2023/08/27 09:57:18;;;;;;;0.30;0.30;;;21.00;99.90;;;;;;4421832;32;21357;-74
2023/08/27 09:59:44;;;;;;;7.87;0.40;;;21.10;99.90;;;;;;4421995;32;20171;-75
2023/08/27 10:02:14;;;;;;;0.62;0.62;;;21.10;99.90;;;;;;4422977;32;20129;-74
2023/08/27 10:04:58;;;;;;;0.40;0.40;;;21.20;99.90;;;;;;4420412;32;20162;-74
2023/08/27 10:07:26;;;;;;;0.55;0.50;;;21.30;99.90;;;;;;4420933;32;20073;-73
2023/08/27 10:09:53;;;;;;;0.45;0.45;;;21.30;99.90;;;;;;4420695;32;20073;-76
2023/08/27 10:12:20;;;;;;;0.70;0.70;;;21.40;99.90;;;;;;4421151;32;20078;-74
2023/08/27 10:14:46;;;;;;;0.30;0.30;;;21.40;99.90;;;;;;4422796;32;20077;-74
2023/08/27 10:17:14;;;;;;;0.28;0.28;;;21.50;99.90;;;;;;4422001;32;21247;-75
2023/08/27 10:19:40;;;;;;;0.22;0.22;;;21.50;99.90;;;;;;4423828;32;20069;-74
2023/08/27 10:22:08;;;;;;;0.30;0.30;;;21.50;99.90;;;;;;4420442;32;20069;-73
2023/08/27 10:24:34;;;;;;;0.30;0.30;;;21.60;99.90;;;;;;4421273;32;20096;-74
2023/08/27 10:27:03;;;;;;;0.30;0.30;;;21.40;99.90;;;;;;4419813;32;20065;-74
2023/08/27 10:29:28;;;;;;;0.30;0.30;;;21.40;99.90;;;;;;4421810;32;20065;-76
2023/08/27 10:31:55;;;;;;;3.83;0.82;;;21.40;99.90;;;;;;4422148;32;20081;-75
2023/08/27 10:34:23;;;;;;;3.83;0.68;;;21.40;99.90;;;;;;4422736;32;20469;-76
2023/08/27 10:36:51;;;;;;;0.30;0.30;;;21.40;99.90;;;;;;4418744;32;20061;-74
2023/08/27 10:39:20;;;;;;;0.50;0.50;;;21.50;99.90;;;;;;4417635;32;20140;-74
2023/08/27 10:41:46;;;;;;;0.63;0.60;;;21.40;99.90;;;;;;4421029;32;20106;-76
2023/08/27 10:44:18;;;;;;;0.30;0.30;;;21.40;99.90;;;;;;4419055;32;20164;-76
2023/08/27 10:47:09;;;;;;;0.37;0.37;;;21.30;99.90;;;;;;4422636;32;20135;-76
2023/08/27 10:49:37;;;;;;;;;;;21.50;99.90;;;;;;4411372;32;20093;-77
2023/08/27 10:52:19;;;;;;;0.60;0.60;;;21.50;99.90;;;;;;4420995;32;19961;-77
2023/08/27 10:54:46;;;;;;;1.77;0.80;;;21.40;99.90;;;;;;4420867;32;20130;-76
2023/08/27 10:57:23;;;;;;;0.80;0.40;;;21.40;99.90;;;;;;4419523;32;20085;-76
2023/08/27 10:59:49;;;;;;;0.30;0.30;;;21.50;99.90;;;;;;4421096;32;20500;-76
2023/08/27 11:02:16;;;;;;;0.75;0.40;;;21.70;99.90;;;;;;4419750;32;20419;-76
2023/08/27 11:04:47;;;;;;;0.30;0.30;;;21.80;99.90;;;;;;4422215;32;20096;-76
2023/08/27 11:07:15;;;;;;;1.42;0.80;;;21.90;99.90;;;;;;4421155;32;20383;-76
2023/08/27 11:09:53;;;;;;;0.40;0.40;;;21.80;99.90;;;;;;4420852;32;20102;-77
2023/08/27 11:12:35;;;;;;;0.32;0.32;;;21.80;99.90;;;;;;4420190;32;20097;-75
2023/08/27 11:15:11;;;;;;;0.43;0.43;;;21.70;99.90;;;;;;4421413;32;20155;-73
2023/08/27 11:17:38;;;;;;;0.57;0.50;;;21.60;99.90;;;;;;4422318;32;20097;-75
2023/08/27 11:20:22;;;;;;;0.50;0.50;;;21.60;99.90;;;;;;4421137;32;20123;-74
2023/08/27 11:22:58;;;;;;;0.30;0.30;;;21.50;99.90;;;;;;4420734;32;20196;-74
2023/08/27 11:25:26;;;;;;;0.40;0.40;;;21.40;99.90;;;;;;4421412;32;20096;-75
2023/08/27 11:27:52;;;;;;;0.82;0.70;;;21.30;99.90;;;;;;4419664;32;20069;-74
2023/08/27 11:30:18;;;;;;;0.30;0.30;;;21.20;99.90;;;;;;4420648;32;20097;-73
2023/08/27 11:32:44;;;;;;;0.32;0.32;;;21.40;99.90;;;;;;4420477;32;20246;-74
2023/08/27 11:35:11;;;;;;;0.30;0.30;;;21.50;99.90;;;;;;4420735;32;20073;-74
2023/08/27 11:37:38;;;;;;;1.15;0.70;;;21.60;99.90;;;;;;4419916;32;20084;-75
2023/08/27 11:40:14;;;;;;;0.20;0.20;;;21.60;99.90;;;;;;4417191;32;20065;-74
2023/08/27 11:42:50;;;;;;;0.37;0.37;;;21.50;99.90;;;;;;4422024;32;20154;-74
2023/08/27 11:45:16;;;;;;;0.40;0.40;;;21.40;99.90;;;;;;4419058;32;20069;-75
2023/08/27 11:47:42;;;;;;;0.77;0.73;;;21.40;99.90;;;;;;4418955;32;86809;-74
2023/08/27 11:50:08;;;;;;;0.40;0.40;;;21.50;99.90;;;;;;4423043;32;20097;-75
2023/08/27 11:52:36;;;;;;;0.30;0.30;;;21.40;99.90;;;;;;4423559;32;20422;-73
2023/08/27 11:55:03;;;;;;;0.30;0.30;;;21.40;99.90;;;;;;4420171;32;20061;-74
2023/08/27 11:57:29;;;;;;;0.55;0.55;;;21.30;99.90;;;;;;4420446;32;20057;-75
2023/08/27 11:59:55;;;;;;;0.30;0.30;;;21.40;99.90;;;;;;4421175;32;20117;-74
2023/08/27 12:02:21;;;;;;;0.40;0.40;;;21.40;99.90;;;;;;4421326;32;20073;-74
2023/08/27 12:04:46;;;;;;;0.30;0.30;;;21.40;99.90;;;;;;4421632;32;20102;-74
2023/08/27 12:07:23;;;;;;;0.80;0.52;;;21.40;99.90;;;;;;4420328;32;20089;-75
2023/08/27 12:09:50;;;;;;;0.40;0.40;;;21.50;99.90;;;;;;4421819;32;20422;-74
2023/08/27 12:12:15;;;;;;;0.20;0.20;;;21.50;99.90;;;;;;4420396;32;20596;-74
2023/08/27 12:14:41;;;;;;;0.30;0.30;;;21.50;99.90;;;;;;4416839;32;20062;-75
2023/08/27 12:17:08;;;;;;;4.78;0.70;;;21.50;99.90;;;;;;4419627;32;20596;-76
2023/08/27 12:19:35;;;;;;;0.40;0.40;;;21.70;99.90;;;;;;4420864;32;20097;-73
2023/08/27 12:22:01;;;;;;;0.32;0.32;;;21.70;99.90;;;;;;4421572;32;20513;-73
2023/08/27 12:24:44;;;;;;;0.40;0.40;;;21.70;99.90;;;;;;4420259;32;20112;-75
2023/08/27 12:27:14;;;;;;;0.43;0.43;;;21.70;99.90;;;;;;4420744;32;20470;-75
2023/08/27 12:29:42;;;;;;;0.20;0.20;;;21.60;99.90;;;;;;4419241;32;20366;-74
2023/08/27 12:32:13;;;;;;;0.20;0.20;;;21.50;99.90;;;;;;4417435;32;20092;-75
2023/08/27 12:34:42;;;;;;;0.35;0.35;;;21.50;99.90;;;;;;4421160;32;20120;-74
2023/08/27 12:37:09;;;;;;;0.30;0.30;;;21.50;99.90;;;;;;4416494;32;20074;-74
2023/08/27 12:39:37;;;;;;;0.30;0.30;;;21.50;99.90;;;;;;4419105;32;20113;-75
2023/08/27 12:42:03;;;;;;;0.30;0.30;;;21.50;99.90;;;;;;4420848;32;20089;-73
2023/08/27 12:44:29;;;;;;;0.40;0.40;;;21.40;99.90;;;;;;4421358;32;20121;-75
2023/08/27 12:46:55;;;;;;;0.30;0.30;;;21.30;99.90;;;;;;4424088;32;20097;-74